This is the latest recevied weather packets stored in our database for station/object N1KM-15. If no packets are shown the sender has not sent any weather packets the latest 10 day(s).
| Time | Temp. | Humidity | Pressure | Rain* | Wind** | Luminosity | Snow |
|---|---|---|---|---|---|---|---|
| 1777834800 | 12.22° C | 45% | 1004.4 hPa | 0 mm | - | - | - |
| 1777833900 | 11.67° C | 45% | 1004.3 hPa | 0 mm | - | - | - |
| 1777833000 | 12.22° C | 45% | 1004.4 hPa | 0 mm | - | - | - |
| 1777832100 | 12.78° C | 45% | 1004.1 hPa | 0 mm | - | - | - |
| 1777831200 | 12.78° C | 45% | 1004 hPa | 0 mm | - | - | - |
| 1777830300 | 12.78° C | 45% | 1003.9 hPa | 0 mm | - | - | - |
| 1777829400 | 12.78° C | 48% | 1003.8 hPa | 0 mm | - | - | - |
| 1777828500 | 11.67° C | 49% | 1003.7 hPa | 0 mm | - | - | - |
| 1777827600 | 11.11° C | 52% | 1004.3 hPa | 0 mm | - | - | - |
| 1777826700 | 11.11° C | 54% | 1004.3 hPa | 0 mm | - | - | - |
| 1777825800 | 9.44° C | 60% | 1004.1 hPa | 0 mm | - | - | - |
| 1777824900 | 9.44° C | 62% | 1004.2 hPa | 0 mm | - | - | - |
| 1777824000 | 9.44° C | 63% | 1004.4 hPa | 0 mm | - | - | - |
| 1777823100 | 9.44° C | 63% | 1004.1 hPa | 0 mm | - | - | - |
| 1777822200 | 9.44° C | 62% | 1004 hPa | 0 mm | - | - | - |
| 1777821300 | 8.89° C | 62% | 1004.1 hPa | 0 mm | - | - | - |
| 1777820400 | 8.89° C | 63% | 1004.3 hPa | 0 mm | - | - | - |
| 1777819500 | 10° C | 61% | 1004.1 hPa | 0 mm | - | - | - |
| 1777818600 | 9.44° C | 63% | 1004.1 hPa | 0 mm | - | - | - |
| 1777817700 | 8.89° C | 64% | 1004.2 hPa | 0 mm | - | - | - |
| 1777816800 | 10° C | 61% | 1004 hPa | 0 mm | - | - | - |
| 1777815900 | 10° C | 60% | 1003.4 hPa | 0 mm | - | - | - |
| 1777815000 | 9.44° C | 61% | 1004 hPa | 0 mm | - | - | - |
| 1777814100 | 10° C | 59% | 1004.2 hPa | 0 mm | - | - | - |
| 1777813200 | 10.56° C | 57% | 1003.6 hPa | 0 mm | - | - | - |
* Rain since midnight (hover to see other rain measurements)
** Current wind speed in m/s (hover to see current wind gust speed)